Historyczne dane pomiarowe

Dodano dane terminowe – wersja testowa.

Dane z okresu 1951-2019

Wersja bazy: 1.34 [2019-03-16, lista zmian], aktualizacja planowana na 2019-04-15

Dane meteo z obszaru Polski uzyskane na podstawie danych udostępnionych przez Instytut Meteorologii i Gospodarki Wodnej – Państwowy Instytut Badawczy.

 

Wybierz Datę:    

       

TemperaturaWilgotnośćWiatrCiśnienieOpadyŚniegCzas trwania zjawisk
 Stacja t tx tn tng RH VA  wxwx mslp ppp RRR   cm mm wxwxwxwxwxwxwx
1987-08-14 15.2 21.4 8.3 6.0 86.0- 8.0 1.0---- 2.6------------
1987-08-13 13.7 19.0 8.3 6.3 85.3- 6.0 0.0---- 0.0------------
1987-08-12 12.4 18.9 4.4 1.3 80.8- 5.3 2.7---- 5.0------------
1987-08-11 12.6 16.7 10.7 7.7 83.3- 5.3 5.0---- 0.0------------
1987-08-10 12.6 16.9 7.7 5.3 92.5- 7.7 3.7---- 3.8------------
1987-08-09 13.7 23.0 5.9 3.3 83.5- 6.3 1.3---- 8.2------------
1987-08-08 15.1 20.1 8.8 4.3 71.0- 1.3 1.3---- 0.0------------
1987-08-07 12.9 18.1 3.2 -0.1 62.5- 2.3 0.7---- 0.0------------
1987-08-06 9.7 13.0 8.3 5.4 90.3- 5.7 5.3---- 4.0------------
1987-08-05 11.0 14.5 7.7 3.2 89.0- 5.7 3.7---- 3.0------------
1987-08-04 13.8 17.1 10.6 7.7 79.3- 6.7 3.7---- 0.3------------
1987-08-03 14.9 19.9 10.8 12.7 81.8- 6.7 2.0---- 4.2------------
1987-08-02 13.4 16.5 10.7 8.9 81.5- 5.7 6.0---- 2.5------------
1987-08-01 15.5 18.4 11.7 10.2 91.3- 7.3 4.3---- 10.6------------
1987-07-31 14.9 17.4 11.8 10.7 87.3- 8.0 2.3---- 1.5------------
1987-07-30 17.5 24.9 10.8 7.3 78.5- 3.3 0.0---- 8.4------------
1987-07-29 14.2 18.5 10.9 8.1 80.5- 5.3 1.7---- 0.0------------
1987-07-28 12.5 14.4 10.8 9.7 82.5- 8.0 5.0---- 0.1------------
1987-07-27 12.2 16.4 9.2 6.8 83.3- 6.7 3.7---- 4.7------------
1987-07-26 12.1 16.4 10.7 8.2 78.3- 6.0 3.3---- 0.3------------
1987-07-25 16.0 19.7 12.6 10.3 83.8- 4.7 2.0---- 1.2------------
1987-07-24 19.1 23.9 11.8 9.9 78.8- 2.3 1.7---- 0.0------------
1987-07-23 18.1 25.6 10.0 8.2 80.3- 5.0 0.0---- 0.0------------
1987-07-22 17.6 23.4 8.5 7.4 81.8- 0.0 0.0---- 0.0------------
1987-07-21 14.6 20.7 11.6 9.2 91.8- 7.0 0.0---- 0.6------------
1987-07-20 17.9 23.4 14.0 13.2 82.3- 3.7 0.0---- 2.6------------
1987-07-19 16.8 19.9 14.2 13.7 87.5- 7.3 1.7---- 21.4------------
1987-07-18 18.9 24.1 15.1 13.7 83.5- 7.3 1.3---- 0.5------------
1987-07-17 22.9 28.0 14.7 12.3 77.5- 5.0 1.0---- 20.4------------
1987-07-16 19.6 26.6 11.0 9.3 82.3- 6.3 1.0---- 0.0------------
1987-07-15 17.0 24.4 5.3 3.8 69.8- 0.3 2.3---- 0.0------------
1987-07-14 14.7 21.7 5.3 2.8 67.3- 0.0 1.7---- 0.0------------
1987-07-13 15.4 20.3 10.4 7.7 77.5- 3.3 2.3---- 0.0------------
1987-07-12 20.4 25.8 13.7 9.7 67.5- 3.7 3.3---- 0.2------------
1987-07-11 17.9 24.4 8.3 5.3 66.0- 2.7 3.0---- 0.0------------
1987-07-10 13.2 18.3 8.5 4.8 71.3- 2.0 4.0---- 0.0------------
1987-07-09 15.9 18.9 13.4 13.3 82.3- 5.7 1.7---- 0.4------------
1987-07-08 17.6 23.7 11.2 9.1 88.5- 6.7 0.3---- 17.6------------
1987-07-07 17.7 27.2 7.8 5.3 71.3- 0.0 1.0---- 0.0------------
1987-07-06 16.3 23.4 6.1 3.8 73.3- 0.0 1.7---- 0.0------------
1987-07-05 14.8 20.4 7.8 5.8 70.8- 0.0 1.0---- 0.0------------
1987-07-04 16.5 21.1 12.2 10.2 80.8- 4.7 0.0---- 0.0------------
1987-07-03 17.6 24.0 9.4 7.3 78.0- 2.0 0.3---- 0.0------------
1987-07-02 19.7 23.1 15.4 14.7 75.0- 0.0 0.0---- 0.0------------
1987-07-01 21.9 30.0 15.9 7.5 87.3- 3.0 1.0---- 14.2------------
1987-06-30 23.8 30.0 13.2 11.2 78.0- 0.7 0.0---- 0.0------------
1987-06-29 22.1 27.7 13.0 10.7 79.3- 1.0 0.3---- 0.0------------
1987-06-28 18.0 21.9 11.6 9.2 84.8- 7.0 3.3---- 0.0------------
1987-06-27 16.5 21.2 14.4 13.1 91.0- 6.7 1.0---- 0.0------------
1987-06-26 15.3 22.8 6.7 4.3 86.0- 7.0 0.7---- 2.2------------
1987-06-25 13.9 16.7 10.9 9.7 88.5- 7.7 1.7---- 1.1------------
1987-06-24 14.2 17.7 11.6 3.3 89.8- 8.0 0.3---- 10.8------------
1987-06-23 13.1 18.9 6.0 9.3 92.0- 8.0 0.7---- 1.7------------
1987-06-22 12.3 17.3 10.8 8.5 95.8- 8.0 0.3---- 0.7------------
1987-06-21 14.3 17.5 11.2 9.6 98.0- 8.0 0.3---- 5.6------------
1987-06-20 13.3 20.9 4.2 1.9 82.0- 4.7 0.0---- 0.9------------
1987-06-19 12.7 17.9 7.8 5.4 67.8- 4.3 0.3---- 0.0------------
1987-06-18 8.3 12.9 6.7 2.8 98.8- 7.7 0.7---- 2.2------------
1987-06-17 10.6 15.1 7.8 6.3 77.5- 6.0 3.3---- 1.7------------
1987-06-16 10.3 16.4 8.2 7.3 95.8- 7.7 5.0---- 0.7------------
322.0 ms

 

Źródłem pochodzenia danych jest Instytut Meteorologii i Gospodarki Wodnej – Państwowy Instytut Badawczy. Dane Instytutu Meteorologii i Gospodarki Wodnej – Państwowego Instytutu Badawczego zostały przetworzone.

Dane źródłowe można odnaleźć na stronie https://dane.imgw.pl